Time;durP1;ratioP1;P1;durP2;ratioP2;P2;SDS_P1;SDS_P2;PMS_P1;PMS_P2;Temp;Humidity;BMP_temperature;BMP_pressure;BME280_temperature;BME280_humidity;BME280_pressure;Samples;Min_cycle;Max_cycle;Signal;HPM_P1;HPM_P2
2021/07/11 00:00:33;;;;;;;;;;;;;;;22.78;63.85;100730.50;5022956;28;1550;-41
2021/07/11 00:03:01;;;;;;;;;;;;;;;22.73;63.69;100735.56;5023602;28;1764;-41
2021/07/11 00:05:27;;;;;;;;;;;;;;;22.68;64.02;100730.66;5029487;28;1689;-41
2021/07/11 00:07:54;;;;;;;;;;;;;;;22.74;63.64;100734.53;5024429;28;1785;-42
2021/07/11 00:10:22;;;;;;;;;;;;;;;22.81;63.22;100735.59;5024582;28;1906;-40
2021/07/11 00:12:48;;;;;;;;;;;;;;;22.79;63.37;100740.31;5031354;28;1503;-42
2021/07/11 00:15:16;;;;;;;;;;;;;;;22.66;63.53;100734.50;5026839;28;1095;-40
2021/07/11 00:17:43;;;;;;;;;;;;;;;22.66;63.45;100729.09;5031610;28;1620;-40
2021/07/11 00:20:12;;;;;;;;;;;;;;;22.78;63.30;100717.03;5020557;28;1751;-41
2021/07/11 00:22:39;;;;;;;;;;;;;;;22.83;63.08;100717.41;5027210;28;1777;-40
2021/07/11 00:25:06;;;;;;;;;;;;;;;22.92;63.06;100720.97;5028578;28;1777;-40
2021/07/11 00:27:33;;;;;;;;;;;;;;;22.84;62.82;100719.94;5028042;28;1585;-41
2021/07/11 00:29:59;;;;;;;;;;;;;;;22.91;62.94;100714.72;5023809;28;1892;-41
2021/07/11 00:32:26;;;;;;;;;;;;;;;22.85;62.97;100720.78;5029995;28;1663;-40
2021/07/11 00:34:53;;;;;;;;;;;;;;;22.90;63.00;100722.97;5023540;28;1837;-40
2021/07/11 00:37:20;;;;;;;;;;;;;;;22.88;63.07;100716.91;5028353;28;1905;-40
2021/07/11 00:39:47;;;;;;;;;;;;;;;22.88;63.11;100719.59;5027394;28;1748;-41
2021/07/11 00:42:14;;;;;;;;;;;;;;;22.91;62.84;100709.34;5016584;28;1598;-41
2021/07/11 00:44:40;;;;;;;;;;;;;;;22.83;63.21;100712.00;5023540;28;1124;-41
2021/07/11 00:47:07;;;;;;;;;;;;;;;22.51;63.62;100713.53;5030183;28;1959;-40
2021/07/11 00:49:33;;;;;;;;;;;;;;;22.33;63.89;100710.06;5022085;28;1923;-40
2021/07/11 00:52:00;;;;;;;;;;;;;;;22.34;63.79;100714.44;5024539;28;1905;-40
2021/07/11 00:54:27;;;;;;;;;;;;;;;22.21;63.99;100706.75;5026379;28;1820;-40
2021/07/11 00:56:55;;;;;;;;;;;;;;;22.29;63.53;100714.09;5030126;28;1824;-41
2021/07/11 00:59:22;;;;;;;;;;;;;;;22.36;63.51;100704.34;5027304;28;1891;-40
2021/07/11 01:01:51;;;;;;;;;;;;;;;22.22;63.73;100698.53;5027275;28;1698;-41
2021/07/11 01:04:20;;;;;;;;;;;;;;;22.19;63.68;100700.69;5020991;28;1519;-40
2021/07/11 01:06:51;;;;;;;;;;;;;;;22.32;63.43;100697.59;5028264;28;2004;-41
2021/07/11 01:09:24;;;;;;;;;;;;;;;22.43;63.00;100694.63;5027425;28;1578;-41
2021/07/11 01:11:59;;;;;;;;;;;;;;;22.58;62.71;100684.94;5029411;28;1906;-40
2021/07/11 01:14:29;;;;;;;;;;;;;;;22.66;62.40;100694.94;5030177;28;1822;-41
2021/07/11 01:16:56;;;;;;;;;;;;;;;22.68;62.41;100692.06;5028586;28;1871;-40
2021/07/11 01:19:28;;;;;;;;;;;;;;;22.66;62.52;100710.22;5023653;28;2070;-41
2021/07/11 01:21:55;;;;;;;;;;;;;;;22.48;62.68;100692.28;5023399;28;1840;-40
2021/07/11 01:24:25;;;;;;;;;;;;;;;22.57;62.27;100693.19;5021934;28;1811;-40
2021/07/11 01:26:53;;;;;;;;;;;;;;;22.57;62.27;100702.13;5028875;28;1787;-41
2021/07/11 01:29:21;;;;;;;;;;;;;;;22.60;62.45;100696.41;5030165;28;1661;-41
2021/07/11 01:31:47;;;;;;;;;;;;;;;22.71;62.07;100689.03;5019270;28;1988;-41
2021/07/11 01:34:14;;;;;;;;;;;;;;;22.69;61.95;100688.38;5023252;28;1978;-41
2021/07/11 01:36:42;;;;;;;;;;;;;;;22.78;61.94;100692.75;5023780;28;1673;-40
2021/07/11 01:39:09;;;;;;;;;;;;;;;22.74;61.93;100686.00;5025572;28;1883;-41
2021/07/11 01:41:37;;;;;;;;;;;;;;;22.71;62.01;100691.75;5020913;28;1066;-41
2021/07/11 01:44:06;;;;;;;;;;;;;;;22.67;62.12;100682.28;5024764;28;1996;-41
2021/07/11 01:46:34;;;;;;;;;;;;;;;22.62;62.18;100685.44;5025093;28;1603;-41
2021/07/11 01:49:01;;;;;;;;;;;;;;;22.61;62.03;100694.56;5023569;28;1705;-40
2021/07/11 01:51:27;;;;;;;;;;;;;;;22.60;61.89;100696.41;5023004;28;1962;-40
2021/07/11 01:53:54;;;;;;;;;;;;;;;22.61;61.68;100692.69;5025726;28;1471;-40
2021/07/11 01:56:21;;;;;;;;;;;;;;;22.70;61.59;100722.38;5024765;28;1713;-40
2021/07/11 01:58:47;;;;;;;;;;;;;;;22.64;62.09;100689.69;5029554;28;2338;-41
2021/07/11 02:01:16;;;;;;;;;;;;;;;22.61;61.79;100700.78;5135680;22;3627;-41
2021/07/11 02:03:43;;;;;;;;;;;;;;;22.64;61.68;100705.88;5016207;28;1556;-41
2021/07/11 02:06:13;;;;;;;;;;;;;;;22.75;61.85;100703.88;5031084;28;1491;-41
2021/07/11 02:08:41;;;;;;;;;;;;;;;22.67;61.68;100699.31;5014194;28;2045;-41
2021/07/11 02:11:10;;;;;;;;;;;;;;;22.69;62.06;100704.53;5029956;28;1990;-41
2021/07/11 02:13:39;;;;;;;;;;;;;;;22.68;61.88;100713.63;5024645;28;1575;-41
2021/07/11 02:16:08;;;;;;;;;;;;;;;22.74;61.48;100696.78;5015604;28;2251;-41
2021/07/11 02:18:52;;;;;;;;;;;;;;;22.71;61.59;100713.31;5029462;28;1544;-41
2021/07/11 02:21:21;;;;;;;;;;;;;;;22.53;62.29;100714.22;5026733;28;1674;-40
2021/07/11 02:23:48;;;;;;;;;;;;;;;22.50;61.74;100719.09;5018889;28;2131;-41
2021/07/11 02:26:18;;;;;;;;;;;;;;;22.31;62.32;100714.78;5032913;28;1715;-40
2021/07/11 02:28:45;;;;;;;;;;;;;;;22.20;62.55;100715.81;5031752;28;2002;-40
2021/07/11 02:31:18;;;;;;;;;;;;;;;22.35;62.17;100729.63;5022799;28;1989;-40
2021/07/11 02:33:51;;;;;;;;;;;;;;;22.37;61.93;100727.59;5019085;28;2033;-40
2021/07/11 02:36:21;;;;;;;;;;;;;;;22.34;61.88;100728.78;5030709;28;1802;-40
2021/07/11 02:39:04;;;;;;;;;;;;;;;22.40;61.86;100724.56;5023290;28;1791;-41
2021/07/11 02:41:45;;;;;;;;;;;;;;;22.36;61.84;100726.78;5012742;28;1070;-41
2021/07/11 02:44:16;;;;;;;;;;;;;;;22.29;61.88;100738.34;5024854;28;1967;-41
2021/07/11 02:46:59;;;;;;;;;;;;;;;22.41;61.57;100742.44;5028512;28;1699;-41
2021/07/11 02:49:53;;;;;;;;;;;;;;;22.49;61.63;100738.97;5013114;28;1686;-41
2021/07/11 02:52:26;;;;;;;;;;;;;;;22.55;61.12;100732.94;5025560;28;1997;-40
2021/07/11 02:55:07;;;;;;;;;;;;;;;22.56;61.09;100727.38;5028539;28;1924;-41
2021/07/11 02:57:35;;;;;;;;;;;;;;;22.62;60.86;100729.44;5013487;28;1789;-41
2021/07/11 03:00:06;;;;;;;;;;;;;;;22.64;60.92;100734.66;5031706;28;1084;-41
2021/07/11 03:02:43;;;;;;;;;;;;;;;22.64;60.84;100734.66;5023873;28;1662;-41
2021/07/11 03:05:23;;;;;;;;;;;;;;;22.68;60.86;100744.13;5017300;28;1755;-41
2021/07/11 03:07:50;;;;;;;;;;;;;;;22.73;60.70;100738.25;5030174;28;1918;-41
2021/07/11 03:10:30;;;;;;;;;;;;;;;22.66;60.46;100742.59;5031069;28;1943;-41
2021/07/11 03:12:59;;;;;;;;;;;;;;;22.68;60.45;100749.53;5028113;28;1906;-41
2021/07/11 03:15:26;;;;;;;;;;;;;;;22.57;61.08;100744.41;5032567;28;1689;-41
2021/07/11 03:17:55;;;;;;;;;;;;;;;22.59;60.79;100737.00;5016686;28;1794;-41
2021/07/11 03:20:37;;;;;;;;;;;;;;;22.56;61.00;100745.38;5026715;28;1800;-41
2021/07/11 03:23:08;;;;;;;;;;;;;;;22.57;61.07;100755.19;5027759;28;1991;-41
2021/07/11 03:25:36;;;;;;;;;;;;;;;22.56;61.11;100740.88;5012955;28;1800;-41
2021/07/11 03:28:13;;;;;;;;;;;;;;;22.64;61.31;100740.91;5029080;28;1779;-40
2021/07/11 03:31:04;;;;;;;;;;;;;;;22.68;61.43;100744.13;5025344;28;1705;-41
2021/07/11 03:33:51;;;;;;;;;;;;;;;22.69;61.48;100728.78;5014650;28;1618;-41
2021/07/11 03:36:25;;;;;;;;;;;;;;;22.72;61.44;100752.72;5020649;28;1989;-41
2021/07/11 03:39:05;;;;;;;;;;;;;;;22.59;61.87;100759.41;5031631;28;1871;-41
2021/07/11 03:41:34;;;;;;;;;;;;;;;22.50;61.84;100748.72;5028561;28;995;-41
2021/07/11 03:44:02;;;;;;;;;;;;;;;22.60;61.25;100752.16;5022141;28;1454;-41
2021/07/11 03:46:40;;;;;;;;;;;;;;;22.31;62.51;100756.03;5026701;28;1837;-41
2021/07/11 03:49:11;;;;;;;;;;;;;;;22.44;62.20;100763.66;5023968;28;1709;-41
2021/07/11 03:51:39;;;;;;;;;;;;;;;22.30;62.47;100759.69;5023515;28;1910;-41
2021/07/11 03:54:14;;;;;;;;;;;;;;;22.46;62.25;100764.34;5034398;28;1858;-41
2021/07/11 03:56:49;;;;;;;;;;;;;;;22.31;62.95;100755.19;5036065;28;1041;-41
2021/07/11 03:59:17;;;;;;;;;;;;;;;22.36;62.82;100759.09;5034611;28;2137;-40
2021/07/11 04:01:46;;;;;;;;;;;;;;;22.58;62.05;100771.19;5032696;28;1918;-40
2021/07/11 04:04:15;;;;;;;;;;;;;;;22.76;62.02;100775.66;5026065;28;1670;-42
2021/07/11 04:06:45;;;;;;;;;;;;;;;22.82;61.96;100765.09;5027389;28;1760;-41
2021/07/11 04:09:16;;;;;;;;;;;;;;;22.87;61.59;100761.91;5028362;28;2934;-41
2021/07/11 04:11:42;;;;;;;;;;;;;;;22.90;61.82;100767.00;5024875;28;1981;-41
2021/07/11 04:14:09;;;;;;;;;;;;;;;22.98;61.57;100780.50;5026901;28;1714;-41
2021/07/11 04:16:36;;;;;;;;;;;;;;;22.98;61.81;100782.38;5024038;28;1022;-41
2021/07/11 04:19:04;;;;;;;;;;;;;;;22.96;61.92;100768.16;5023050;28;1733;-41
2021/07/11 04:21:32;;;;;;;;;;;;;;;22.98;61.87;100774.28;5023633;28;2016;-41
2021/07/11 04:23:59;;;;;;;;;;;;;;;23.03;62.02;100780.88;5025324;28;2274;-41
2021/07/11 04:26:27;;;;;;;;;;;;;;;23.16;61.67;100776.91;5031360;28;1784;-40
2021/07/11 04:28:54;;;;;;;;;;;;;;;23.25;61.63;100784.00;5028600;28;1730;-41
2021/07/11 04:31:21;;;;;;;;;;;;;;;23.30;61.73;100789.78;5027368;28;2077;-41
2021/07/11 04:33:47;;;;;;;;;;;;;;;23.36;61.69;100789.13;5027059;28;1312;-41
2021/07/11 04:36:14;;;;;;;;;;;;;;;23.32;61.70;100774.25;5029595;28;1544;-41
2021/07/11 04:38:40;;;;;;;;;;;;;;;23.31;62.42;100786.06;5027412;28;2312;-41
2021/07/11 04:41:09;;;;;;;;;;;;;;;23.05;62.96;100798.78;5027092;28;1737;-41
2021/07/11 04:43:37;;;;;;;;;;;;;;;22.93;63.45;100799.00;5026597;28;1546;-42
2021/07/11 04:46:03;;;;;;;;;;;;;;;22.86;63.64;100797.97;5025414;28;1502;-41
2021/07/11 04:48:30;;;;;;;;;;;;;;;22.89;63.37;100786.03;5027023;28;1547;-41
2021/07/11 04:50:56;;;;;;;;;;;;;;;23.00;63.25;100778.50;5025584;28;1601;-41
2021/07/11 04:53:25;;;;;;;;;;;;;;;23.29;62.43;100788.06;5026861;28;1950;-41
2021/07/11 04:55:54;;;;;;;;;;;;;;;23.45;61.96;100795.38;5025930;28;1922;-41
2021/07/11 04:58:20;;;;;;;;;;;;;;;23.57;61.80;100777.84;5030351;28;1647;-41
2021/07/11 05:00:48;;;;;;;;;;;;;;;23.66;62.12;100789.53;5023892;28;1548;-41
2021/07/11 05:03:15;;;;;;;;;;;;;;;23.54;62.33;100780.06;5028497;28;1477;-41
2021/07/11 05:05:41;;;;;;;;;;;;;;;23.50;62.70;100778.72;5029109;28;1806;-42
2021/07/11 05:08:08;;;;;;;;;;;;;;;23.52;62.57;100777.53;5025635;28;1494;-41
2021/07/11 05:10:34;;;;;;;;;;;;;;;23.70;62.17;100779.25;5028946;28;1717;-41
2021/07/11 05:13:01;;;;;;;;;;;;;;;23.80;62.26;100770.00;5029944;28;1910;-41
2021/07/11 05:15:28;;;;;;;;;;;;;;;23.79;62.39;100772.88;5024302;28;2050;-42
2021/07/11 05:17:56;;;;;;;;;;;;;;;23.50;63.03;100768.75;5030721;28;1553;-41
2021/07/11 05:20:22;;;;;;;;;;;;;;;23.46;63.27;100772.78;5027539;28;1586;-41
2021/07/11 05:22:49;;;;;;;;;;;;;;;23.63;62.88;100768.25;5026660;28;1980;-41
2021/07/11 05:25:15;;;;;;;;;;;;;;;23.70;62.92;100763.06;5028443;28;1757;-47
2021/07/11 05:27:41;;;;;;;;;;;;;;;23.50;63.13;100759.81;5031139;28;2116;-42
2021/07/11 05:30:08;;;;;;;;;;;;;;;23.51;63.21;100772.28;5029698;28;1594;-41
2021/07/11 05:32:35;;;;;;;;;;;;;;;23.74;63.11;100781.44;5030594;28;1930;-42
2021/07/11 05:35:03;;;;;;;;;;;;;;;23.86;63.22;100764.97;5022887;28;1870;-41
2021/07/11 05:37:29;;;;;;;;;;;;;;;23.88;62.93;100766.47;5026104;28;1966;-41
2021/07/11 05:39:59;;;;;;;;;;;;;;;23.94;62.98;100782.00;5022766;28;1572;-41
2021/07/11 05:42:35;;;;;;;;;;;;;;;23.93;63.59;100764.09;5032000;28;1656;-41
2021/07/11 05:45:01;;;;;;;;;;;;;;;23.99;63.70;100770.69;5014565;28;1759;-42
2021/07/11 05:47:28;;;;;;;;;;;;;;;23.98;63.62;100767.16;5022599;28;1002;-42
2021/07/11 05:49:54;;;;;;;;;;;;;;;24.07;63.15;100786.88;5022290;28;1813;-41
2021/07/11 05:52:22;;;;;;;;;;;;;;;24.10;63.05;100770.34;5021407;28;1948;-42
2021/07/11 05:54:49;;;;;;;;;;;;;;;24.06;63.15;100769.00;5023402;28;1959;-41
2021/07/11 05:57:15;;;;;;;;;;;;;;;24.12;63.48;100779.13;5031817;28;1559;-42
2021/07/11 05:59:42;;;;;;;;;;;;;;;24.08;63.45;100766.13;5022230;28;1114;-41
2021/07/11 06:02:08;;;;;;;;;;;;;;;24.09;63.01;100767.81;5021165;28;1870;-41
2021/07/11 06:04:34;;;;;;;;;;;;;;;24.16;63.09;100775.06;5021955;28;1739;-41
2021/07/11 06:07:01;;;;;;;;;;;;;;;24.14;63.28;100769.00;5023806;28;2014;-41
2021/07/11 06:09:29;;;;;;;;;;;;;;;24.10;63.07;100767.66;5023641;28;1692;-41
2021/07/11 06:11:55;;;;;;;;;;;;;;;24.13;63.55;100767.31;5029635;28;1910;-41
2021/07/11 06:14:22;;;;;;;;;;;;;;;24.13;62.94;100766.47;5021154;28;1889;-41
2021/07/11 06:16:48;;;;;;;;;;;;;;;24.15;63.19;100768.00;5022483;28;1584;-41
2021/07/11 06:19:15;;;;;;;;;;;;;;;24.14;63.11;100763.59;5022641;28;1561;-42
2021/07/11 06:21:42;;;;;;;;;;;;;;;24.20;63.45;100764.78;5023182;28;1732;-41
2021/07/11 06:24:08;;;;;;;;;;;;;;;24.15;63.21;100768.00;5022946;28;1531;-41
2021/07/11 06:26:36;;;;;;;;;;;;;;;24.18;63.23;100764.09;5026250;28;1112;-41
2021/07/11 06:29:03;;;;;;;;;;;;;;;24.16;63.05;100766.97;5023120;28;1887;-41
2021/07/11 06:31:30;;;;;;;;;;;;;;;24.17;63.28;100771.38;5022523;28;1822;-41
2021/07/11 06:33:56;;;;;;;;;;;;;;;24.19;63.44;100772.06;5022716;28;2044;-41
2021/07/11 06:36:22;;;;;;;;;;;;;;;24.17;63.72;100768.69;5022742;28;1620;-41
2021/07/11 06:38:49;;;;;;;;;;;;;;;24.17;63.24;100762.41;5021548;28;1653;-41
2021/07/11 06:41:15;;;;;;;;;;;;;;;24.20;63.87;100767.47;5024376;28;1066;-41
2021/07/11 06:43:43;;;;;;;;;;;;;;;24.21;63.51;100748.41;5028441;28;1702;-41
2021/07/11 06:46:10;;;;;;;;;;;;;;;23.79;63.63;100754.78;5026302;28;1697;-41
2021/07/11 06:48:36;;;;;;;;;;;;;;;22.96;63.92;100765.47;5033061;28;1580;-41
2021/07/11 06:51:03;;;;;;;;;;;;;;;22.37;63.78;100768.03;5018958;28;1886;-43
2021/07/11 06:53:29;;;;;;;;;;;;;;;21.92;63.67;100767.13;5021520;28;1898;-41
2021/07/11 06:55:56;;;;;;;;;;;;;;;21.83;62.72;100762.69;5022815;28;1575;-41
2021/07/11 06:58:22;;;;;;;;;;;;;;;21.82;62.66;100761.81;5027816;28;1666;-41
2021/07/11 07:00:50;;;;;;;;;;;;;;;21.85;63.53;100755.28;5020246;28;1644;-41
2021/07/11 07:03:17;;;;;;;;;;;;;;;21.98;63.81;100777.25;5027102;28;1552;-41
2021/07/11 07:05:43;;;;;;;;;;;;;;;22.10;63.13;100769.78;5020477;28;1603;-41
2021/07/11 07:08:09;;;;;;;;;;;;;;;22.09;63.19;100760.03;5021602;28;1774;-41
2021/07/11 07:10:36;;;;;;;;;;;;;;;22.14;63.38;100765.78;5023408;28;1158;-41
2021/07/11 07:13:02;;;;;;;;;;;;;;;22.16;63.90;100753.03;5015814;28;1907;-41
2021/07/11 07:15:29;;;;;;;;;;;;;;;22.17;63.22;100749.31;5023773;28;1828;-41
2021/07/11 07:17:57;;;;;;;;;;;;;;;22.13;63.46;100766.78;5022164;28;1627;-41
2021/07/11 07:20:23;;;;;;;;;;;;;;;22.05;63.34;100767.56;5021174;28;2305;-41
2021/07/11 07:22:50;;;;;;;;;;;;;;;22.12;63.30;100765.09;5028870;28;1647;-41
2021/07/11 07:25:20;;;;;;;;;;;;;;;22.41;65.04;100772.09;5026952;28;1621;-41
2021/07/11 07:27:47;;;;;;;;;;;;;;;22.86;64.66;100771.03;5027107;28;1617;-41
2021/07/11 07:30:18;;;;;;;;;;;;;;;23.28;64.03;100766.63;5026914;28;1597;-41
2021/07/11 07:32:48;;;;;;;;;;;;;;;23.53;63.63;100751.38;5026185;28;1902;-41
2021/07/11 07:35:19;;;;;;;;;;;;;;;23.73;63.30;100768.09;5027719;28;1537;-42
2021/07/11 07:37:58;;;;;;;;;;;;;;;23.83;63.60;100766.13;5029475;28;1361;-41
2021/07/11 07:40:25;;;;;;;;;;;;;;;24.02;63.34;100781.16;5028969;28;1279;-41
2021/07/11 07:42:52;;;;;;;;;;;;;;;24.07;62.91;100781.47;5030270;28;1493;-40
2021/07/11 07:45:19;;;;;;;;;;;;;;;24.09;63.21;100771.34;5031352;28;1531;-41
2021/07/11 07:47:48;;;;;;;;;;;;;;;24.14;62.69;100777.09;5029513;28;1548;-41
2021/07/11 07:50:22;;;;;;;;;;;;;;;24.15;63.34;100772.53;5028607;28;1716;-41
2021/07/11 07:52:48;;;;;;;;;;;;;;;24.22;63.10;100779.81;5022430;28;1910;-41
2021/07/11 07:55:15;;;;;;;;;;;;;;;24.20;63.42;100771.03;5024439;28;1581;-41
2021/07/11 07:57:41;;;;;;;;;;;;;;;24.18;63.46;100773.03;5030070;28;1780;-41
2021/07/11 08:00:09;;;;;;;;;;;;;;;24.24;62.74;100773.41;5026367;28;1530;-41
2021/07/11 08:02:35;;;;;;;;;;;;;;;24.24;62.66;100779.63;5024944;28;1578;-40
2021/07/11 08:05:02;;;;;;;;;;;;;;;24.26;63.03;100757.84;5019852;28;1900;-41
2021/07/11 08:07:30;;;;;;;;;;;;;;;24.26;63.04;100764.09;5018514;28;1566;-41
2021/07/11 08:09:56;;;;;;;;;;;;;;;24.25;62.98;100750.75;5021324;28;1518;-41
2021/07/11 08:12:23;;;;;;;;;;;;;;;24.28;62.96;100755.81;5026613;28;2037;-41
2021/07/11 08:14:50;;;;;;;;;;;;;;;24.29;63.52;100747.56;5018462;28;1715;-41
2021/07/11 08:17:16;;;;;;;;;;;;;;;24.31;63.47;100750.94;5016267;28;1814;-41
2021/07/11 08:19:43;;;;;;;;;;;;;;;24.32;63.88;100741.78;5016566;28;2355;-41
2021/07/11 08:22:09;;;;;;;;;;;;;;;24.37;63.70;100754.78;5020675;28;1635;-41
2021/07/11 08:24:37;;;;;;;;;;;;;;;24.39;63.35;100763.56;5026190;28;1890;-41
2021/07/11 08:27:04;;;;;;;;;;;;;;;24.36;63.14;100750.41;5025841;28;1603;-41
2021/07/11 08:29:31;;;;;;;;;;;;;;;24.37;63.63;100750.25;5023664;28;1364;-41
2021/07/11 08:31:59;;;;;;;;;;;;;;;24.41;63.85;100750.72;5033141;28;1404;-41
2021/07/11 08:34:25;;;;;;;;;;;;;;;24.41;63.38;100753.41;5026589;28;1906;-40
2021/07/11 08:37:07;;;;;;;;;;;;;;;24.36;63.99;100753.94;5026873;28;2009;-41
2021/07/11 08:39:46;;;;;;;;;;;;;;;24.36;63.80;100745.00;5031940;28;1664;-41
2021/07/11 08:42:16;;;;;;;;;;;;;;;24.38;63.67;100749.22;5033389;28;1680;-41
2021/07/11 08:44:50;;;;;;;;;;;;;;;24.37;63.34;100747.53;5031040;28;1619;-41
2021/07/11 08:47:21;;;;;;;;;;;;;;;24.35;64.47;100741.47;5028187;28;1424;-41
2021/07/11 08:49:48;;;;;;;;;;;;;;;24.36;63.87;100736.91;5028596;28;1654;-42
2021/07/11 08:52:16;;;;;;;;;;;;;;;24.41;64.50;100739.91;5027819;28;1647;-41
2021/07/11 08:54:42;;;;;;;;;;;;;;;24.36;64.40;100731.50;5030758;28;2259;-41
2021/07/11 08:57:10;;;;;;;;;;;;;;;24.38;64.16;100732.16;5030143;28;1937;-41
2021/07/11 08:59:37;;;;;;;;;;;;;;;24.34;64.31;100718.13;5029234;28;1826;-41
2021/07/11 09:02:19;;;;;;;;;;;;;;;24.39;64.20;100725.72;5029641;28;1562;-41
2021/07/11 09:04:46;;;;;;;;;;;;;;;24.42;64.92;100730.78;5017122;28;1557;-41
2021/07/11 09:07:18;;;;;;;;;;;;;;;24.40;64.95;100717.44;5015354;28;1693;-41
2021/07/11 09:09:44;;;;;;;;;;;;;;;24.41;64.99;100734.50;5026103;28;1675;-41
2021/07/11 09:12:13;;;;;;;;;;;;;;;24.45;65.24;100730.44;5033678;28;1202;-41
2021/07/11 09:14:42;;;;;;;;;;;;;;;24.40;64.83;100713.91;5033263;28;1915;-41
2021/07/11 09:17:18;;;;;;;;;;;;;;;24.39;65.68;100718.47;5031051;28;1847;-42
2021/07/11 09:19:45;;;;;;;;;;;;;;;24.40;64.95;100740.94;5030926;28;1503;-42
2021/07/11 09:22:19;;;;;;;;;;;;;;;24.37;65.72;100727.75;5021056;28;1727;-41
2021/07/11 09:24:49;;;;;;;;;;;;;;;24.40;65.65;100712.03;5021140;28;1741;-41
2021/07/11 09:27:17;;;;;;;;;;;;;;;24.46;65.32;100721.31;5027621;28;1757;-42
2021/07/11 09:29:44;;;;;;;;;;;;;;;24.48;66.16;100723.88;5027421;28;1303;-44
2021/07/11 09:32:25;;;;;;;;;;;;;;;24.55;66.85;100722.16;5024786;28;1755;-42
2021/07/11 09:37:16;;;;;;;;;;;;;;;24.30;67.56;100705.16;5117500;27;1453;-70
2021/07/11 09:39:46;;;;;;;;;;;;;;;23.62;66.04;100723.38;5100777;28;1438;-66
2021/07/11 09:42:23;;;;;;;;;;;;;;;22.79;65.61;100713.34;5101562;28;1505;-66
2021/07/11 09:44:49;;;;;;;;;;;;;;;22.26;64.56;100719.78;5103990;28;1426;-66
2021/07/11 09:47:17;;;;;;;;;;;;;;;21.93;64.15;100735.69;5106544;28;1360;-66
2021/07/11 09:49:43;;;;;;;;;;;;;;;21.72;63.38;100725.22;5104893;28;1232;-66
2021/07/11 09:52:10;;;;;;;;;;;;;;;21.49;62.07;100723.00;5106888;28;1417;-66
2021/07/11 09:54:38;;;;;;;;;;;;;;;21.33;61.79;100717.38;5105621;28;1462;-62
2021/07/11 09:57:09;;;;;;;;;;;;;;;21.26;61.09;100719.84;5107820;28;1979;-63
2021/07/11 09:59:35;;;;;;;;;;;;;;;21.33;61.19;100720.94;5103883;28;1438;-61
2021/07/11 10:02:02;;;;;;;;;;;;;;;21.29;60.82;100718.69;5096289;28;1553;-62
2021/07/11 10:04:29;;;;;;;;;;;;;;;21.34;61.08;100717.25;5101846;28;1138;-63
2021/07/11 10:06:56;;;;;;;;;;;;;;;21.54;61.90;100712.59;5099737;28;1399;-62
2021/07/11 10:09:23;;;;;;;;;;;;;;;21.67;62.99;100714.09;5096034;28;1452;-65
2021/07/11 10:12:02;;;;;;;;;;;;;;;21.71;63.78;100700.16;4782851;28;10000061;-65
2021/07/11 10:14:29;;;;;;;;;;;;;;;21.82;63.83;100707.97;5120478;28;1102;-63
2021/07/11 10:16:55;;;;;;;;;;;;;;;22.03;63.53;100713.03;5098259;28;1969;-66
2021/07/11 10:19:22;;;;;;;;;;;;;;;22.21;64.17;100710.28;5098004;28;1455;-64
2021/07/11 10:21:50;;;;;;;;;;;;;;;22.37;64.22;100714.13;5097025;28;1307;-61
2021/07/11 10:24:18;;;;;;;;;;;;;;;22.46;64.83;100670.03;5103633;28;1446;-62
2021/07/11 10:26:45;;;;;;;;;;;;;;;22.66;64.43;100694.06;5100952;28;1442;-64
2021/07/11 10:29:13;;;;;;;;;;;;;;;22.71;65.73;100671.00;5099239;28;1445;-62
2021/07/11 10:31:44;;;;;;;;;;;;;;;22.83;66.61;100682.34;5096563;28;1390;-65
2021/07/11 10:34:10;;;;;;;;;;;;;;;22.87;67.22;100669.41;5098185;28;1136;-63
2021/07/11 10:36:39;;;;;;;;;;;;;;;22.97;68.09;100683.56;5103920;28;2008;-63
2021/07/11 10:39:09;;;;;;;;;;;;;;;22.98;67.48;100667.25;5096633;28;1486;-66
2021/07/11 10:41:46;;;;;;;;;;;;;;;23.17;66.88;100670.69;5091542;28;1570;-63
2021/07/11 10:44:20;;;;;;;;;;;;;;;23.32;66.06;100663.63;5093573;28;1496;-63
2021/07/11 10:46:48;;;;;;;;;;;;;;;23.49;65.98;100650.16;5092320;28;1742;-67
2021/07/11 10:49:16;;;;;;;;;;;;;;;23.63;65.35;100661.13;5089822;28;1254;-67
2021/07/11 10:51:43;;;;;;;;;;;;;;;23.70;65.35;100645.09;5082661;28;1514;-66
2021/07/11 10:54:20;;;;;;;;;;;;;;;23.78;65.25;100645.13;5078916;28;1481;-66
2021/07/11 10:56:46;;;;;;;;;;;;;;;23.81;64.85;100647.50;5089026;28;1910;-67
2021/07/11 10:59:24;;;;;;;;;;;;;;;23.91;64.64;100643.75;5084412;28;1654;-67
2021/07/11 11:01:51;;;;;;;;;;;;;;;23.92;64.61;100627.38;5079706;28;1513;-61
2021/07/11 11:04:17;;;;;;;;;;;;;;;23.95;64.73;100615.38;5083434;28;1260;-61
2021/07/11 11:06:44;;;;;;;;;;;;;;;23.99;64.36;100624.81;5086503;28;1574;-68
2021/07/11 11:09:11;;;;;;;;;;;;;;;23.99;65.14;100616.72;5086345;28;1493;-62
2021/07/11 11:11:37;;;;;;;;;;;;;;;24.02;65.05;100605.59;5080855;28;1485;-68
2021/07/11 11:14:04;;;;;;;;;;;;;;;24.05;64.83;100593.56;5084208;28;1505;-69
2021/07/11 11:16:40;;;;;;;;;;;;;;;24.09;65.36;100594.91;5084098;28;1969;-68
2021/07/11 11:19:13;;;;;;;;;;;;;;;24.09;65.16;100590.34;5079051;28;1469;-62
2021/07/11 11:21:40;;;;;;;;;;;;;;;24.11;65.27;100587.47;5081826;28;1524;-68
2021/07/11 11:24:06;;;;;;;;;;;;;;;24.10;64.98;100592.06;5076881;28;1458;-69
2021/07/11 11:26:33;;;;;;;;;;;;;;;24.12;65.10;100581.91;5082969;28;1481;-61
2021/07/11 11:29:01;;;;;;;;;;;;;;;24.14;65.78;100592.56;5085864;28;1513;-61
2021/07/11 11:31:28;;;;;;;;;;;;;;;24.15;65.70;100578.88;5079678;28;1529;-69
2021/07/11 11:33:57;;;;;;;;;;;;;;;24.16;65.33;100579.72;5080750;28;1212;-69
2021/07/11 11:36:25;;;;;;;;;;;;;;;24.19;65.34;100564.00;5089927;28;1910;-62
2021/07/11 11:38:53;;;;;;;;;;;;;;;24.21;65.25;100571.91;5079719;28;1462;-62
2021/07/11 11:41:20;;;;;;;;;;;;;;;24.18;65.60;100559.59;5079287;28;1497;-69
2021/07/11 11:43:48;;;;;;;;;;;;;;;24.18;64.96;100561.47;5080812;28;1190;-62
2021/07/11 11:46:25;;;;;;;;;;;;;;;24.20;65.48;100556.72;5085987;28;1452;-61
2021/07/11 11:49:00;;;;;;;;;;;;;;;24.18;65.55;100554.19;5075139;28;1476;-61
2021/07/11 11:51:27;;;;;;;;;;;;;;;24.18;65.19;100539.84;5080683;28;1446;-62
2021/07/11 11:53:53;;;;;;;;;;;;;;;24.19;65.01;100553.19;5083374;28;1446;-62
2021/07/11 11:56:20;;;;;;;;;;;;;;;24.18;64.74;100550.66;5075826;28;1930;-69
2021/07/11 11:58:47;;;;;;;;;;;;;;;24.22;65.25;100563.63;5079125;28;1481;-68
2021/07/11 12:01:15;;;;;;;;;;;;;;;24.20;65.57;100549.47;5083945;28;1500;-62
2021/07/11 12:03:42;;;;;;;;;;;;;;;24.24;65.03;100557.22;5081867;28;1761;-65
2021/07/11 12:06:11;;;;;;;;;;;;;;;24.28;64.57;100553.16;5076675;28;1530;-68
2021/07/11 12:08:39;;;;;;;;;;;;;;;24.29;64.94;100541.31;5077630;28;1519;-62
2021/07/11 12:11:06;;;;;;;;;;;;;;;24.28;65.27;100551.28;5081819;28;1474;-65
2021/07/11 12:13:33;;;;;;;;;;;;;;;24.29;64.93;100541.31;5082165;28;1398;-65
2021/07/11 12:16:07;;;;;;;;;;;;;;;24.30;65.39;100559.22;4722309;28;10000087;-62
2021/07/11 12:18:43;;;;;;;;;;;;;;;24.32;65.05;100562.59;5072026;28;1915;-62
2021/07/11 12:21:11;;;;;;;;;;;;;;;24.32;65.39;100546.38;5074279;28;1584;-62
2021/07/11 12:23:38;;;;;;;;;;;;;;;24.31;65.18;100550.09;5075210;28;1608;-62
2021/07/11 12:26:07;;;;;;;;;;;;;;;24.28;65.77;100551.28;5074902;28;1502;-62
2021/07/11 12:28:35;;;;;;;;;;;;;;;24.29;65.54;100552.97;5075511;28;1187;-62
2021/07/11 12:31:02;;;;;;;;;;;;;;;24.32;65.54;100530.16;5081291;28;1487;-62
2021/07/11 12:33:29;;;;;;;;;;;;;;;24.29;65.71;100530.50;5072577;28;1341;-62
2021/07/11 12:35:59;;;;;;;;;;;;;;;24.30;65.29;100543.00;5072761;28;2212;-62
2021/07/11 12:38:30;;;;;;;;;;;;;;;24.31;65.22;100533.88;5080494;28;1505;-62
2021/07/11 12:40:58;;;;;;;;;;;;;;;24.33;66.17;100548.03;5073026;28;1524;-62
2021/07/11 12:43:30;;;;;;;;;;;;;;;24.33;65.98;100542.63;5074476;28;1446;-62
2021/07/11 12:45:58;;;;;;;;;;;;;;;24.40;65.72;100527.41;5074605;28;1364;-62
2021/07/11 12:48:33;;;;;;;;;;;;;;;24.44;65.68;100523.34;5074022;28;1454;-61
2021/07/11 12:51:00;;;;;;;;;;;;;;;24.48;66.83;100540.06;5086908;28;1404;-63
2021/07/11 12:53:35;;;;;;;;;;;;;;;24.58;67.44;100536.13;5084392;28;1305;-64
2021/07/11 12:56:02;;;;;;;;;;;;;;;24.59;66.86;100527.00;5080835;28;1979;-63